MTS Valour — MPVV8 — position and weather

sailwx.info

Track history (hours):
 
Tides and Currents Weather Stations Pressure Air Temp Water Temp Dewpoint Dewpoint Depression Visibility Wind Speed Wind Dir Waves Ship Positions

MTS Valour

Last reported at 2016-Apr-21 17:18 UTC. Time now 2016-Apr-29 06:04 UTC.
Position N 49°34' W 001°52'.

Length 24 m; draft 2.4 m.

Type: Tug. MMSI: 235040596.

Date/timePositionNaut miles runAvg speedWind from/ knotsBaromVisibWave heightAir tempDewpointWater temp
2016-Apr-21 17:18N 49°34' W 001°52'0 0.0
2016-Apr-21 16:21N 49°34' W 001°52'0 0.0
2016-Apr-19 18:10N 49°34' W 001°52'16 2.0
2016-Apr-19 10:09N 49°44' W 002°10'  
2016-Apr-16 14:24N 50°26' W 002°52'3 4.0
2016-Apr-16 13:33N 50°28' W 002°57'4 3.8
2016-Apr-16 12:33N 50°30' W 003°01'4 3.6
2016-Apr-16 11:34N 50°32' W 003°06'4 3.6
2016-Apr-16 10:33N 50°34' W 003°11'3 3.3
2016-Apr-16 09:33N 50°36' W 003°15'2 1.9
2016-Apr-16 08:33N 50°37' W 003°18'1 0.8
2016-Apr-16 07:34N 50°37' W 003°19'0 0.2
2016-Apr-16 06:33N 50°37' W 003°19'0 0.0
2016-Apr-16 05:33N 50°37' W 003°19'0 0.0
2016-Apr-16 04:34N 50°37' W 003°19'0 0.0
2016-Apr-16 03:34N 50°37' W 003°19'0 0.0
2016-Apr-16 02:33N 50°37' W 003°19'0 0.0
2016-Apr-16 01:33N 50°37' W 003°19'0 0.0
2016-Apr-16 00:34N 50°37' W 003°19'0 0.0
2016-Apr-15 23:34N 50°37' W 003°19'0 0.0
2016-Apr-15 22:34N 50°37' W 003°19'0 0.0
2016-Apr-15 21:34N 50°37' W 003°19'0 0.0
2016-Apr-15 20:34N 50°37' W 003°19'0 0.0
2016-Apr-15 19:34N 50°37' W 003°19'0 0.0
2016-Apr-15 18:34N 50°37' W 003°19'0 0.0
2016-Apr-15 17:34N 50°37' W 003°19'0 0.0
2016-Apr-15 16:34N 50°37' W 003°19'0 0.0
2016-Apr-15 15:34N 50°37' W 003°19'0 0.0
2016-Apr-15 14:33N 50°37' W 003°19'0 0.0
2016-Apr-15 13:33N 50°37' W 003°19'0 0.0
2016-Apr-15 12:34N 50°37' W 003°19'0 0.0
2016-Apr-15 11:33N 50°37' W 003°19'0 0.0
2016-Apr-15 10:34N 50°37' W 003°19'0 0.0
2016-Apr-15 09:33N 50°37' W 003°19'0 0.0
2016-Apr-15 08:34N 50°37' W 003°19'0 0.0
2016-Apr-15 07:34N 50°37' W 003°19'0 0.0
2016-Apr-15 06:33N 50°37' W 003°19'0 0.0
2016-Apr-15 05:34N 50°37' W 003°19'0 0.0
2016-Apr-15 04:33N 50°37' W 003°19'0 0.0
2016-Apr-15 03:33N 50°37' W 003°19'0 0.0
2016-Apr-15 02:34N 50°37' W 003°19'0 0.0
2016-Apr-15 01:34N 50°37' W 003°19'0 0.0
2016-Apr-15 00:33N 50°37' W 003°19'0 0.0
2016-Apr-14 23:34N 50°37' W 003°19'0 0.0
2016-Apr-14 22:33N 50°37' W 003°19'0 0.0
2016-Apr-14 21:34N 50°37' W 003°19'0 0.0
2016-Apr-14 20:33N 50°37' W 003°19'0 0.0
2016-Apr-14 19:34N 50°37' W 003°19'0 0.0
2016-Apr-14 18:33N 50°37' W 003°19'0 0.0
2016-Apr-14 17:33N 50°37' W 003°19'0 0.0
2016-Apr-14 16:33N 50°37' W 003°19'0 0.0
2016-Apr-14 15:34N 50°37' W 003°19'0 0.0
2016-Apr-14 14:34N 50°37' W 003°19'0 0.0
2016-Apr-14 13:33N 50°37' W 003°19'0 0.0
2016-Apr-14 12:34N 50°37' W 003°19'0 0.0
2016-Apr-14 11:34N 50°37' W 003°19'0 0.0
2016-Apr-14 10:33N 50°37' W 003°19'0 0.0
2016-Apr-14 09:34N 50°37' W 003°19'0 0.0
2016-Apr-14 08:34N 50°37' W 003°19'0 0.1
2016-Apr-14 07:34N 50°37' W 003°19'0 0.1
2016-Apr-14 06:34N 50°37' W 003°19'0 0.0
2016-Apr-14 05:34N 50°37' W 003°19'0 0.0
2016-Apr-14 04:34N 50°37' W 003°19'0 0.1
2016-Apr-14 03:33N 50°37' W 003°19'0 0.0
2016-Apr-14 02:34N 50°37' W 003°19'0 0.0
2016-Apr-14 01:34N 50°37' W 003°19'0 0.0
2016-Apr-14 00:33N 50°37' W 003°19'0 0.0
2016-Apr-13 23:34N 50°37' W 003°19'0 0.0
2016-Apr-13 22:34N 50°37' W 003°19'0 0.1
2016-Apr-13 21:33N 50°37' W 003°19'0 0.1
2016-Apr-13 20:34N 50°37' W 003°19'0 0.0
2016-Apr-13 19:33N 50°37' W 003°19'0 0.0
2016-Apr-13 18:33N 50°37' W 003°19'0 0.0
2016-Apr-13 17:33N 50°37' W 003°19'0 0.0
2016-Apr-13 16:34N 50°37' W 003°19'0 0.0
2016-Apr-13 15:33N 50°37' W 003°19'0 0.0
2016-Apr-13 14:33N 50°37' W 003°19'0 0.0
2016-Apr-13 13:34N 50°37' W 003°19'0 0.0
2016-Apr-13 12:33N 50°37' W 003°19'0 0.0
2016-Apr-13 11:34N 50°37' W 003°19'0 0.0
2016-Apr-13 10:33N 50°37' W 003°19'0 0.0
2016-Apr-13 09:33N 50°37' W 003°19'0 0.0
2016-Apr-13 08:33N 50°37' W 003°19'0 0.0
2016-Apr-13 07:34N 50°37' W 003°19'0 0.0
2016-Apr-13 06:34N 50°37' W 003°19'0 0.0
2016-Apr-13 05:34N 50°37' W 003°19'0 0.0
2016-Apr-13 04:34N 50°37' W 003°19'0 0.0
2016-Apr-13 03:34N 50°37' W 003°19'0 0.0
2016-Apr-13 02:33N 50°37' W 003°19'0 0.0
2016-Apr-13 01:34N 50°37' W 003°19'0 0.0
2016-Apr-13 00:34N 50°37' W 003°19'0 0.0
2016-Apr-12 23:33N 50°37' W 003°19'0 0.0
2016-Apr-12 22:34N 50°37' W 003°19'0 0.0
2016-Apr-12 21:33N 50°37' W 003°19'0 0.0
2016-Apr-12 20:34N 50°37' W 003°19'0 0.0
2016-Apr-12 19:33N 50°37' W 003°19'0 0.0
2016-Apr-12 18:33N 50°37' W 003°19'0 0.0
2016-Apr-12 17:33N 50°37' W 003°19'0 0.0
2016-Apr-12 16:33N 50°37' W 003°19'0 0.0
2016-Apr-12 15:34N 50°37' W 003°19'0 0.0
2016-Apr-12 14:34N 50°37' W 003°19'0 0.0
2016-Apr-12 13:34N 50°37' W 003°19'0 0.0
2016-Apr-12 12:34N 50°37' W 003°19'0 0.0
2016-Apr-12 11:33N 50°37' W 003°19'0 0.0
2016-Apr-12 10:34N 50°37' W 003°19'0 0.2
2016-Apr-12 09:33N 50°38' W 003°19'0 0.1
2016-Apr-12 08:33N 50°38' W 003°19'1 0.9
2016-Apr-12 07:33N 50°37' W 003°17'1 0.6
2016-Apr-12 06:33N 50°37' W 003°18'1 0.7
2016-Apr-12 05:34N 50°37' W 003°17'1 1.4
2016-Apr-12 04:33N 50°37' W 003°15'2 2.0
2016-Apr-12 03:33N 50°36' W 003°12'2 2.4
2016-Apr-12 02:34N 50°35' W 003°08'2 2.3
2016-Apr-12 01:33N 50°35' W 003°05'2 2.2
2016-Apr-12 00:34N 50°34' W 003°02'2 2.3
2016-Apr-11 23:34N 50°33' W 002°58'2 2.2
2016-Apr-11 22:34N 50°33' W 002°55'2 2.2
2016-Apr-11 21:33N 50°32' W 002°52'2 2.1
2016-Apr-11 20:33N 50°31' W 002°49'2 2.2
2016-Apr-11 19:34N 50°31' W 002°45'3 2.8
2016-Apr-11 18:33N 50°30' W 002°41'5 4.2
2016-Apr-11 17:23N 50°28' W 002°34'  
Track history (hours):
 
Tides and Currents Weather Stations Pressure Air Temp Water Temp Dewpoint Dewpoint Depression Visibility Wind Speed Wind Dir Waves Ship Positions

MTS Valour

Last reported at 2016-Apr-21 17:18 UTC. Time now 2016-Apr-29 06:04 UTC.
Position N 49°34' W 001°52'.

Length 24 m; draft 2.4 m.

Type: Tug. MMSI: 235040596.

Date/timePositionNaut miles runAvg speedWind from/ knotsBaromVisibWave heightAir tempDewpointWater temp
2016-Apr-21 17:18N 49°34' W 001°52'0 0.0
2016-Apr-21 16:21N 49°34' W 001°52'0 0.0
2016-Apr-19 18:10N 49°34' W 001°52'16 2.0
2016-Apr-19 10:09N 49°44' W 002°10'  
2016-Apr-16 14:24N 50°26' W 002°52'3 4.0
2016-Apr-16 13:33N 50°28' W 002°57'4 3.8
2016-Apr-16 12:33N 50°30' W 003°01'4 3.6
2016-Apr-16 11:34N 50°32' W 003°06'4 3.6
2016-Apr-16 10:33N 50°34' W 003°11'3 3.3
2016-Apr-16 09:33N 50°36' W 003°15'2 1.9
2016-Apr-16 08:33N 50°37' W 003°18'1 0.8
2016-Apr-16 07:34N 50°37' W 003°19'0 0.2
2016-Apr-16 06:33N 50°37' W 003°19'0 0.0
2016-Apr-16 05:33N 50°37' W 003°19'0 0.0
2016-Apr-16 04:34N 50°37' W 003°19'0 0.0
2016-Apr-16 03:34N 50°37' W 003°19'0 0.0
2016-Apr-16 02:33N 50°37' W 003°19'0 0.0
2016-Apr-16 01:33N 50°37' W 003°19'0 0.0
2016-Apr-16 00:34N 50°37' W 003°19'0 0.0
2016-Apr-15 23:34N 50°37' W 003°19'0 0.0
2016-Apr-15 22:34N 50°37' W 003°19'0 0.0
2016-Apr-15 21:34N 50°37' W 003°19'0 0.0
2016-Apr-15 20:34N 50°37' W 003°19'0 0.0
2016-Apr-15 19:34N 50°37' W 003°19'0 0.0
2016-Apr-15 18:34N 50°37' W 003°19'0 0.0
2016-Apr-15 17:34N 50°37' W 003°19'0 0.0
2016-Apr-15 16:34N 50°37' W 003°19'0 0.0
2016-Apr-15 15:34N 50°37' W 003°19'0 0.0
2016-Apr-15 14:33N 50°37' W 003°19'0 0.0
2016-Apr-15 13:33N 50°37' W 003°19'0 0.0
2016-Apr-15 12:34N 50°37' W 003°19'0 0.0
2016-Apr-15 11:33N 50°37' W 003°19'0 0.0
2016-Apr-15 10:34N 50°37' W 003°19'0 0.0
2016-Apr-15 09:33N 50°37' W 003°19'0 0.0
2016-Apr-15 08:34N 50°37' W 003°19'0 0.0
2016-Apr-15 07:34N 50°37' W 003°19'0 0.0
2016-Apr-15 06:33N 50°37' W 003°19'0 0.0
2016-Apr-15 05:34N 50°37' W 003°19'0 0.0
2016-Apr-15 04:33N 50°37' W 003°19'0 0.0
2016-Apr-15 03:33N 50°37' W 003°19'0 0.0
2016-Apr-15 02:34N 50°37' W 003°19'0 0.0
2016-Apr-15 01:34N 50°37' W 003°19'0 0.0
2016-Apr-15 00:33N 50°37' W 003°19'0 0.0
2016-Apr-14 23:34N 50°37' W 003°19'0 0.0
2016-Apr-14 22:33N 50°37' W 003°19'0 0.0
2016-Apr-14 21:34N 50°37' W 003°19'0 0.0
2016-Apr-14 20:33N 50°37' W 003°19'0 0.0
2016-Apr-14 19:34N 50°37' W 003°19'0 0.0
2016-Apr-14 18:33N 50°37' W 003°19'0 0.0
2016-Apr-14 17:33N 50°37' W 003°19'0 0.0
2016-Apr-14 16:33N 50°37' W 003°19'0 0.0
2016-Apr-14 15:34N 50°37' W 003°19'0 0.0
2016-Apr-14 14:34N 50°37' W 003°19'0 0.0
2016-Apr-14 13:33N 50°37' W 003°19'0 0.0
2016-Apr-14 12:34N 50°37' W 003°19'0 0.0
2016-Apr-14 11:34N 50°37' W 003°19'0 0.0
2016-Apr-14 10:33N 50°37' W 003°19'0 0.0
2016-Apr-14 09:34N 50°37' W 003°19'0 0.0
2016-Apr-14 08:34N 50°37' W 003°19'0 0.1
2016-Apr-14 07:34N 50°37' W 003°19'0 0.1
2016-Apr-14 06:34N 50°37' W 003°19'0 0.0
2016-Apr-14 05:34N 50°37' W 003°19'0 0.0
2016-Apr-14 04:34N 50°37' W 003°19'0 0.1
2016-Apr-14 03:33N 50°37' W 003°19'0 0.0
2016-Apr-14 02:34N 50°37' W 003°19'0 0.0
2016-Apr-14 01:34N 50°37' W 003°19'0 0.0
2016-Apr-14 00:33N 50°37' W 003°19'0 0.0
2016-Apr-13 23:34N 50°37' W 003°19'0 0.0
2016-Apr-13 22:34N 50°37' W 003°19'0 0.1
2016-Apr-13 21:33N 50°37' W 003°19'0 0.1
2016-Apr-13 20:34N 50°37' W 003°19'0 0.0
2016-Apr-13 19:33N 50°37' W 003°19'0 0.0
2016-Apr-13 18:33N 50°37' W 003°19'0 0.0
2016-Apr-13 17:33N 50°37' W 003°19'0 0.0
2016-Apr-13 16:34N 50°37' W 003°19'0 0.0
2016-Apr-13 15:33N 50°37' W 003°19'0 0.0
2016-Apr-13 14:33N 50°37' W 003°19'0 0.0
2016-Apr-13 13:34N 50°37' W 003°19'0 0.0
2016-Apr-13 12:33N 50°37' W 003°19'0 0.0
2016-Apr-13 11:34N 50°37' W 003°19'0 0.0
2016-Apr-13 10:33N 50°37' W 003°19'0 0.0
2016-Apr-13 09:33N 50°37' W 003°19'0 0.0
2016-Apr-13 08:33N 50°37' W 003°19'0 0.0
2016-Apr-13 07:34N 50°37' W 003°19'0 0.0
2016-Apr-13 06:34N 50°37' W 003°19'0 0.0
2016-Apr-13 05:34N 50°37' W 003°19'0 0.0
2016-Apr-13 04:34N 50°37' W 003°19'0 0.0
2016-Apr-13 03:34N 50°37' W 003°19'0 0.0
2016-Apr-13 02:33N 50°37' W 003°19'0 0.0
2016-Apr-13 01:34N 50°37' W 003°19'0 0.0
2016-Apr-13 00:34N 50°37' W 003°19'0 0.0
2016-Apr-12 23:33N 50°37' W 003°19'0 0.0
2016-Apr-12 22:34N 50°37' W 003°19'0 0.0
2016-Apr-12 21:33N 50°37' W 003°19'0 0.0
2016-Apr-12 20:34N 50°37' W 003°19'0 0.0
2016-Apr-12 19:33N 50°37' W 003°19'0 0.0
2016-Apr-12 18:33N 50°37' W 003°19'0 0.0
2016-Apr-12 17:33N 50°37' W 003°19'0 0.0
2016-Apr-12 16:33N 50°37' W 003°19'0 0.0
2016-Apr-12 15:34N 50°37' W 003°19'0 0.0
2016-Apr-12 14:34N 50°37' W 003°19'0 0.0
2016-Apr-12 13:34N 50°37' W 003°19'0 0.0
2016-Apr-12 12:34N 50°37' W 003°19'0 0.0
2016-Apr-12 11:33N 50°37' W 003°19'0 0.0
2016-Apr-12 10:34N 50°37' W 003°19'0 0.2
2016-Apr-12 09:33N 50°38' W 003°19'0 0.1
2016-Apr-12 08:33N 50°38' W 003°19'1 0.9
2016-Apr-12 07:33N 50°37' W 003°17'1 0.6
2016-Apr-12 06:33N 50°37' W 003°18'1 0.7
2016-Apr-12 05:34N 50°37' W 003°17'1 1.4
2016-Apr-12 04:33N 50°37' W 003°15'2 2.0
2016-Apr-12 03:33N 50°36' W 003°12'2 2.4
2016-Apr-12 02:34N 50°35' W 003°08'2 2.3
2016-Apr-12 01:33N 50°35' W 003°05'2 2.2
2016-Apr-12 00:34N 50°34' W 003°02'2 2.3
2016-Apr-11 23:34N 50°33' W 002°58'2 2.2
2016-Apr-11 22:34N 50°33' W 002°55'2 2.2
2016-Apr-11 21:33N 50°32' W 002°52'2 2.1
2016-Apr-11 20:33N 50°31' W 002°49'2 2.2
2016-Apr-11 19:34N 50°31' W 002°45'3 2.8
2016-Apr-11 18:33N 50°30' W 002°41'5 4.2
2016-Apr-11 17:23N 50°28' W 002°34'  

Dump ship's entire track history